sensor_id;sensor_type;location;lat;lon;timestamp;pressure;altitude;pressure_sealevel;temperature;humidity
74893;BME280;63446;56.272;43.922;2022-12-29T00:01:42;100415.72;;;-2.79;71.66
74893;BME280;63446;56.272;43.922;2022-12-29T00:04:11;100421.50;;;-2.77;71.53
74893;BME280;63446;56.272;43.922;2022-12-29T00:06:39;100426.50;;;-2.76;71.56
74893;BME280;63446;56.272;43.922;2022-12-29T00:09:05;100419.53;;;-2.75;71.52
74893;BME280;63446;56.272;43.922;2022-12-29T00:11:31;100429.34;;;-2.71;71.73
74893;BME280;63446;56.272;43.922;2022-12-29T00:13:57;100419.00;;;-2.71;71.83
74893;BME280;63446;56.272;43.922;2022-12-29T00:16:42;100414.63;;;-2.70;71.67
74893;BME280;63446;56.272;43.922;2022-12-29T00:19:09;100420.25;;;-2.66;71.67
74893;BME280;63446;56.272;43.922;2022-12-29T00:21:55;100425.25;;;-2.65;71.40
74893;BME280;63446;56.272;43.922;2022-12-29T00:24:39;100420.25;;;-2.66;71.49
74893;BME280;63446;56.272;43.922;2022-12-29T00:27:23;100408.09;;;-2.66;71.45
74893;BME280;63446;56.272;43.922;2022-12-29T00:30:10;100409.91;;;-2.66;71.39
74893;BME280;63446;56.272;43.922;2022-12-29T00:32:54;100410.69;;;-2.66;71.26
74893;BME280;63446;56.272;43.922;2022-12-29T00:35:44;100410.09;;;-2.68;71.65
74893;BME280;63446;56.272;43.922;2022-12-29T00:38:11;100413.66;;;-2.69;71.69
74893;BME280;63446;56.272;43.922;2022-12-29T00:40:56;100414.28;;;-2.67;71.55
74893;BME280;63446;56.272;43.922;2022-12-29T00:43:41;100409.91;;;-2.66;71.48
74893;BME280;63446;56.272;43.922;2022-12-29T00:46:25;100415.88;;;-2.66;71.55
74893;BME280;63446;56.272;43.922;2022-12-29T00:48:51;100418.44;;;-2.66;71.37
74893;BME280;63446;56.272;43.922;2022-12-29T00:51:35;100413.28;;;-2.66;71.49
74893;BME280;63446;56.272;43.922;2022-12-29T00:54:01;100415.25;;;-2.68;71.69
74893;BME280;63446;56.272;43.922;2022-12-29T00:56:27;100414.06;;;-2.65;71.36
74893;BME280;63446;56.272;43.922;2022-12-29T00:58:53;100407.50;;;-2.68;71.46
74893;BME280;63446;56.272;43.922;2022-12-29T01:01:18;100411.69;;;-2.67;71.52
74893;BME280;63446;56.272;43.922;2022-12-29T01:03:44;100419.09;;;-2.64;71.41
74893;BME280;63446;56.272;43.922;2022-12-29T01:06:12;100414.72;;;-2.63;71.47
74893;BME280;63446;56.272;43.922;2022-12-29T01:08:37;100416.94;;;-2.60;71.42
74893;BME280;63446;56.272;43.922;2022-12-29T01:11:07;100413.72;;;-2.62;71.28
74893;BME280;63446;56.272;43.922;2022-12-29T01:13:34;100419.97;;;-2.57;71.17
74893;BME280;63446;56.272;43.922;2022-12-29T01:16:01;100419.97;;;-2.57;71.25
74893;BME280;63446;56.272;43.922;2022-12-29T01:18:28;100424.16;;;-2.56;71.33
74893;BME280;63446;56.272;43.922;2022-12-29T01:21:04;100415.41;;;-2.55;71.18
74893;BME280;63446;56.272;43.922;2022-12-29T01:23:31;100418.00;;;-2.55;71.23
74893;BME280;63446;56.272;43.922;2022-12-29T01:26:11;100411.81;;;-2.54;71.20
74893;BME280;63446;56.272;43.922;2022-12-29T01:28:38;100409.63;;;-2.57;71.12
74893;BME280;63446;56.272;43.922;2022-12-29T01:31:06;100417.84;;;-2.53;71.28
74893;BME280;63446;56.272;43.922;2022-12-29T01:33:32;100426.19;;;-2.51;71.40
74893;BME280;63446;56.272;43.922;2022-12-29T01:36:05;100421.47;;;-2.48;71.35
74893;BME280;63446;56.272;43.922;2022-12-29T01:38:32;100422.09;;;-2.46;71.36
74893;BME280;63446;56.272;43.922;2022-12-29T01:40:58;100422.47;;;-2.49;71.32
74893;BME280;63446;56.272;43.922;2022-12-29T01:49:10;100425.28;;;-2.43;71.26
74893;BME280;63446;56.272;43.922;2022-12-29T01:51:45;100425.94;;;-2.41;71.31
74893;BME280;63446;56.272;43.922;2022-12-29T01:54:28;100431.72;;;-2.39;71.41
74893;BME280;63446;56.272;43.922;2022-12-29T01:56:59;100429.56;;;-2.36;71.50
74893;BME280;63446;56.272;43.922;2022-12-29T01:59:30;100425.81;;;-2.33;71.54
74893;BME280;63446;56.272;43.922;2022-12-29T02:01:58;100417.06;;;-2.32;71.48
74893;BME280;63446;56.272;43.922;2022-12-29T02:04:28;100419.88;;;-2.27;71.37
74893;BME280;63446;56.272;43.922;2022-12-29T02:07:01;100430.53;;;-2.22;71.41
74893;BME280;63446;56.272;43.922;2022-12-29T02:09:28;100427.75;;;-2.21;71.43
74893;BME280;63446;56.272;43.922;2022-12-29T02:11:54;100429.16;;;-2.18;71.32
74893;BME280;63446;56.272;43.922;2022-12-29T02:14:21;100432.34;;;-2.16;71.52
74893;BME280;63446;56.272;43.922;2022-12-29T02:34:36;100435.91;;;-2.02;71.33
74893;BME280;63446;56.272;43.922;2022-12-29T02:36:47;100426.97;;;-2.00;71.31
74893;BME280;63446;56.272;43.922;2022-12-29T02:41:57;100423.97;;;-1.97;71.36
74893;BME280;63446;56.272;43.922;2022-12-29T02:47:15;100428.63;;;-1.92;71.58
74893;BME280;63446;56.272;43.922;2022-12-29T02:49:49;100428.44;;;-1.90;71.40
74893;BME280;63446;56.272;43.922;2022-12-29T02:52:25;100426.66;;;-1.90;71.43
74893;BME280;63446;56.272;43.922;2022-12-29T02:54:54;100421.47;;;-1.90;71.33
74893;BME280;63446;56.272;43.922;2022-12-29T03:00:05;100425.84;;;-1.90;71.35
74893;BME280;63446;56.272;43.922;2022-12-29T03:16:12;100444.72;;;-1.75;71.59
74893;BME280;63446;56.272;43.922;2022-12-29T03:18:46;100449.34;;;-1.70;71.62
74893;BME280;63446;56.272;43.922;2022-12-29T03:21:38;100446.75;;;-1.70;71.73
74893;BME280;63446;56.272;43.922;2022-12-29T03:24:27;100442.00;;;-1.67;71.79
74893;BME280;63446;56.272;43.922;2022-12-29T03:26:58;100444.81;;;-1.62;71.75
74893;BME280;63446;56.272;43.922;2022-12-29T03:29:29;100455.63;;;-1.58;71.80
74893;BME280;63446;56.272;43.922;2022-12-29T03:31:58;100453.28;;;-1.53;71.85
74893;BME280;63446;56.272;43.922;2022-12-29T03:34:26;100452.28;;;-1.52;71.71
74893;BME280;63446;56.272;43.922;2022-12-29T03:37:00;100454.53;;;-1.49;71.85
74893;BME280;63446;56.272;43.922;2022-12-29T03:39:29;100448.13;;;-1.47;71.83
74893;BME280;63446;56.272;43.922;2022-12-29T03:42:04;100453.75;;;-1.43;71.78
74893;BME280;63446;56.272;43.922;2022-12-29T03:44:35;100456.97;;;-1.41;71.79
74893;BME280;63446;56.272;43.922;2022-12-29T03:47:03;100449.00;;;-1.39;71.87
74893;BME280;63446;56.272;43.922;2022-12-29T03:49:30;100448.03;;;-1.38;71.91
74893;BME280;63446;56.272;43.922;2022-12-29T03:51:56;100450.22;;;-1.35;71.87
74893;BME280;63446;56.272;43.922;2022-12-29T03:54:22;100454.25;;;-1.33;72.13
74893;BME280;63446;56.272;43.922;2022-12-29T03:56:49;100456.63;;;-1.31;71.86
74893;BME280;63446;56.272;43.922;2022-12-29T03:59:19;100457.84;;;-1.27;71.98
74893;BME280;63446;56.272;43.922;2022-12-29T04:01:45;100460.28;;;-1.26;71.97
74893;BME280;63446;56.272;43.922;2022-12-29T04:04:12;100459.91;;;-1.23;71.92
74893;BME280;63446;56.272;43.922;2022-12-29T04:06:38;100464.09;;;-1.21;71.86
74893;BME280;63446;56.272;43.922;2022-12-29T04:09:09;100466.50;;;-1.20;72.01
74893;BME280;63446;56.272;43.922;2022-12-29T04:11:40;100464.69;;;-1.19;71.90
74893;BME280;63446;56.272;43.922;2022-12-29T04:14:06;100471.31;;;-1.17;71.91
74893;BME280;63446;56.272;43.922;2022-12-29T04:16:33;100472.91;;;-1.16;71.82
74893;BME280;63446;56.272;43.922;2022-12-29T04:19:03;100468.34;;;-1.14;72.01
74893;BME280;63446;56.272;43.922;2022-12-29T04:21:29;100477.13;;;-1.15;71.92
74893;BME280;63446;56.272;43.922;2022-12-29T04:23:56;100470.13;;;-1.14;71.93
74893;BME280;63446;56.272;43.922;2022-12-29T04:26:22;100474.75;;;-1.10;71.96
74893;BME280;63446;56.272;43.922;2022-12-29T04:29:14;100479.31;;;-1.12;71.89
74893;BME280;63446;56.272;43.922;2022-12-29T04:32:13;100487.72;;;-1.10;71.96
74893;BME280;63446;56.272;43.922;2022-12-29T04:34:44;100490.91;;;-1.08;71.96
74893;BME280;63446;56.272;43.922;2022-12-29T04:37:10;100490.91;;;-1.08;72.01
74893;BME280;63446;56.272;43.922;2022-12-29T04:39:36;100495.94;;;-1.06;71.94
74893;BME280;63446;56.272;43.922;2022-12-29T04:42:03;100490.91;;;-1.08;71.95
74893;BME280;63446;56.272;43.922;2022-12-29T04:44:31;100498.16;;;-1.03;71.94
74893;BME280;63446;56.272;43.922;2022-12-29T04:47:11;100493.75;;;-1.03;71.97
74893;BME280;63446;56.272;43.922;2022-12-29T04:49:42;100495.34;;;-1.02;71.96
74893;BME280;63446;56.272;43.922;2022-12-29T04:52:29;100500.34;;;-1.00;71.85
74893;BME280;63446;56.272;43.922;2022-12-29T04:54:56;100497.94;;;-1.02;71.93
74893;BME280;63446;56.272;43.922;2022-12-29T04:57:22;100499.38;;;-0.99;72.00
74893;BME280;63446;56.272;43.922;2022-12-29T04:59:52;100505.38;;;-0.99;71.92
74893;BME280;63446;56.272;43.922;2022-12-29T05:02:18;100501.78;;;-0.98;71.97
74893;BME280;63446;56.272;43.922;2022-12-29T05:04:46;100498.59;;;-1.00;71.85
74893;BME280;63446;56.272;43.922;2022-12-29T05:07:12;100509.38;;;-0.96;71.99
74893;BME280;63446;56.272;43.922;2022-12-29T05:09:38;100509.19;;;-0.94;71.85
74893;BME280;63446;56.272;43.922;2022-12-29T05:12:04;100511.78;;;-0.94;71.97
74893;BME280;63446;56.272;43.922;2022-12-29T05:14:32;100513.38;;;-0.93;71.87
74893;BME280;63446;56.272;43.922;2022-12-29T05:20:39;100523.75;;;-0.93;71.70
74893;BME280;63446;56.272;43.922;2022-12-29T05:23:05;100520.34;;;-0.94;71.86
74893;BME280;63446;56.272;43.922;2022-12-29T05:25:31;100523.75;;;-0.93;71.93
74893;BME280;63446;56.272;43.922;2022-12-29T05:28:19;100522.75;;;-0.92;71.90
74893;BME280;63446;56.272;43.922;2022-12-29T05:30:49;100518.75;;;-0.95;71.89
74893;BME280;63446;56.272;43.922;2022-12-29T05:33:18;100533.56;;;-0.89;71.86
74893;BME280;63446;56.272;43.922;2022-12-29T05:35:44;100527.56;;;-0.89;71.87
74893;BME280;63446;56.272;43.922;2022-12-29T05:38:11;100524.97;;;-0.89;71.96
74893;BME280;63446;56.272;43.922;2022-12-29T05:40:37;100535.19;;;-0.88;72.04
74893;BME280;63446;56.272;43.922;2022-12-29T05:43:08;100535.97;;;-0.87;71.91
74893;BME280;63446;56.272;43.922;2022-12-29T05:45:54;100539.16;;;-0.85;71.88
74893;BME280;63446;56.272;43.922;2022-12-29T05:48:34;100541.75;;;-0.85;72.03
74893;BME280;63446;56.272;43.922;2022-12-29T05:54:32;100551.78;;;-0.82;71.91
74893;BME280;63446;56.272;43.922;2022-12-29T05:56:58;100560.34;;;-0.82;71.81
74893;BME280;63446;56.272;43.922;2022-12-29T05:59:25;100561.34;;;-0.83;71.80
74893;BME280;63446;56.272;43.922;2022-12-29T06:01:52;100566.34;;;-0.81;71.96
74893;BME280;63446;56.272;43.922;2022-12-29T06:04:19;100563.56;;;-0.80;71.72
74893;BME280;63446;56.272;43.922;2022-12-29T06:06:46;100562.78;;;-0.80;71.88
74893;BME280;63446;56.272;43.922;2022-12-29T06:09:20;100561.78;;;-0.79;71.91
74893;BME280;63446;56.272;43.922;2022-12-29T06:11:47;100565.97;;;-0.78;71.84
74893;BME280;63446;56.272;43.922;2022-12-29T06:14:13;100577.78;;;-0.76;71.89
74893;BME280;63446;56.272;43.922;2022-12-29T06:16:41;100568.19;;;-0.75;71.78
74893;BME280;63446;56.272;43.922;2022-12-29T06:19:10;100565.41;;;-0.74;71.83
74893;BME280;63446;56.272;43.922;2022-12-29T06:21:37;100563.63;;;-0.73;71.73
74893;BME280;63446;56.272;43.922;2022-12-29T06:24:04;100569.63;;;-0.72;71.75
74893;BME280;63446;56.272;43.922;2022-12-29T06:26:34;100569.22;;;-0.69;71.77
74893;BME280;63446;56.272;43.922;2022-12-29T06:29:00;100568.03;;;-0.67;71.63
74893;BME280;63446;56.272;43.922;2022-12-29T06:31:28;100574.84;;;-0.66;71.67
74893;BME280;63446;56.272;43.922;2022-12-29T06:33:54;100567.66;;;-0.64;71.52
74893;BME280;63446;56.272;43.922;2022-12-29T06:36:20;100570.69;;;-0.60;71.50
74893;BME280;63446;56.272;43.922;2022-12-29T06:38:46;100579.06;;;-0.58;71.47
74893;BME280;63446;56.272;43.922;2022-12-29T06:41:13;100573.88;;;-0.58;71.54
74893;BME280;63446;56.272;43.922;2022-12-29T06:44:14;100575.69;;;-0.59;71.48
74893;BME280;63446;56.272;43.922;2022-12-29T06:46:56;100574.50;;;-0.56;71.42
74893;BME280;63446;56.272;43.922;2022-12-29T06:49:23;100568.31;;;-0.55;71.38
74893;BME280;63446;56.272;43.922;2022-12-29T06:51:48;100581.13;;;-0.54;71.26
74893;BME280;63446;56.272;43.922;2022-12-29T06:54:15;100575.09;;;-0.54;71.30
74893;BME280;63446;56.272;43.922;2022-12-29T06:56:41;100576.16;;;-0.48;71.28
74893;BME280;63446;56.272;43.922;2022-12-29T06:59:06;100569.38;;;-0.50;71.22
74893;BME280;63446;56.272;43.922;2022-12-29T07:01:32;100577.38;;;-0.44;71.01
74893;BME280;63446;56.272;43.922;2022-12-29T07:03:58;100579.59;;;-0.41;71.15
74893;BME280;63446;56.272;43.922;2022-12-29T07:06:24;100576.81;;;-0.40;71.04
74893;BME280;63446;56.272;43.922;2022-12-29T07:08:50;100578.22;;;-0.37;70.81
74893;BME280;63446;56.272;43.922;2022-12-29T07:11:17;100572.22;;;-0.38;70.81
74893;BME280;63446;56.272;43.922;2022-12-29T07:13:43;100570.06;;;-0.34;70.92
74893;BME280;63446;56.272;43.922;2022-12-29T07:16:09;100576.84;;;-0.33;70.84
74893;BME280;63446;56.272;43.922;2022-12-29T07:18:35;100582.63;;;-0.31;70.81
74893;BME280;63446;56.272;43.922;2022-12-29T07:21:02;100576.28;;;-0.29;70.80
74893;BME280;63446;56.272;43.922;2022-12-29T07:23:29;100583.06;;;-0.28;70.79
74893;BME280;63446;56.272;43.922;2022-12-29T07:26:03;100576.69;;;-0.25;70.52
74893;BME280;63446;56.272;43.922;2022-12-29T07:28:30;100574.72;;;-0.23;70.58
74893;BME280;63446;56.272;43.922;2022-12-29T07:30:56;100572.72;;;-0.21;70.61
74893;BME280;63446;56.272;43.922;2022-12-29T07:33:23;100575.09;;;-0.19;70.54
74893;BME280;63446;56.272;43.922;2022-12-29T07:35:49;100570.53;;;-0.17;70.44
74893;BME280;63446;56.272;43.922;2022-12-29T07:38:15;100576.34;;;-0.15;70.49
74893;BME280;63446;56.272;43.922;2022-12-29T07:40:42;100577.56;;;-0.11;70.42
74893;BME280;63446;56.272;43.922;2022-12-29T07:43:10;100582.34;;;-0.08;70.27
74893;BME280;63446;56.272;43.922;2022-12-29T07:45:43;100584.78;;;-0.07;70.40
74893;BME280;63446;56.272;43.922;2022-12-29T07:48:09;100578.16;;;-0.09;70.50
74893;BME280;63446;56.272;43.922;2022-12-29T07:50:35;100580.00;;;-0.03;70.44
74893;BME280;63446;56.272;43.922;2022-12-29T07:53:02;100584.19;;;-0.02;70.30
74893;BME280;63446;56.272;43.922;2022-12-29T07:55:29;100580.41;;;0.01;70.19
74893;BME280;63446;56.272;43.922;2022-12-29T07:57:56;100580.00;;;0.04;70.29
74893;BME280;63446;56.272;43.922;2022-12-29T08:00:22;100572.81;;;0.06;70.26
74893;BME280;63446;56.272;43.922;2022-12-29T08:02:49;100580.03;;;0.10;70.21
74893;BME280;63446;56.272;43.922;2022-12-29T08:05:15;100574.03;;;0.10;70.15
74893;BME280;63446;56.272;43.922;2022-12-29T08:07:43;100570.44;;;0.11;70.14
74893;BME280;63446;56.272;43.922;2022-12-29T08:10:10;100579.88;;;0.12;70.04
74893;BME280;63446;56.272;43.922;2022-12-29T08:12:38;100593.44;;;0.14;70.17
74893;BME280;63446;56.272;43.922;2022-12-29T08:15:04;100586.44;;;0.14;69.89
74893;BME280;63446;56.272;43.922;2022-12-29T08:17:30;100587.25;;;0.15;70.02
74893;BME280;63446;56.272;43.922;2022-12-29T08:19:58;100584.84;;;0.13;70.04
74893;BME280;63446;56.272;43.922;2022-12-29T08:22:24;100587.06;;;0.16;69.95
74893;BME280;63446;56.272;43.922;2022-12-29T08:24:50;100583.69;;;0.16;69.85
74893;BME280;63446;56.272;43.922;2022-12-29T08:27:17;100592.44;;;0.15;70.05
74893;BME280;63446;56.272;43.922;2022-12-29T08:29:43;100591.66;;;0.14;69.83
74893;BME280;63446;56.272;43.922;2022-12-29T08:32:09;100595.03;;;0.15;69.84
74893;BME280;63446;56.272;43.922;2022-12-29T08:34:35;100590.63;;;0.15;69.83
74893;BME280;63446;56.272;43.922;2022-12-29T08:37:01;100595.66;;;0.17;69.96
74893;BME280;63446;56.272;43.922;2022-12-29T08:39:27;100587.88;;;0.17;69.86
74893;BME280;63446;56.272;43.922;2022-12-29T08:41:53;100587.47;;;0.20;69.89
74893;BME280;63446;56.272;43.922;2022-12-29T08:44:18;100582.25;;;0.13;69.74
74893;BME280;63446;56.272;43.922;2022-12-29T08:46:44;100593.88;;;0.17;69.80
74893;BME280;63446;56.272;43.922;2022-12-29T08:49:10;100604.06;;;0.19;69.73
74893;BME280;63446;56.272;43.922;2022-12-29T08:51:37;100594.66;;;0.18;69.78
74893;BME280;63446;56.272;43.922;2022-12-29T08:54:03;100601.66;;;0.17;69.76
74893;BME280;63446;56.272;43.922;2022-12-29T08:56:30;100602.47;;;0.18;69.77
74893;BME280;63446;56.272;43.922;2022-12-29T08:58:58;100600.06;;;0.16;69.83
74893;BME280;63446;56.272;43.922;2022-12-29T09:01:27;100605.06;;;0.18;69.88
74893;BME280;63446;56.272;43.922;2022-12-29T09:03:53;100606.66;;;0.19;69.96
74893;BME280;63446;56.272;43.922;2022-12-29T09:06:19;100608.28;;;0.20;69.96
74893;BME280;63446;56.272;43.922;2022-12-29T09:08:45;100612.47;;;0.21;69.99
74893;BME280;63446;56.272;43.922;2022-12-29T09:11:16;100620.06;;;0.22;70.04
74893;BME280;63446;56.272;43.922;2022-12-29T09:13:42;100614.06;;;0.22;70.01
74893;BME280;63446;56.272;43.922;2022-12-29T09:16:08;100601.88;;;0.22;69.90
74893;BME280;63446;56.272;43.922;2022-12-29T09:18:34;100605.09;;;0.24;69.97
74893;BME280;63446;56.272;43.922;2022-12-29T09:21:02;100605.69;;;0.27;69.79
74893;BME280;63446;56.272;43.922;2022-12-29T09:23:29;100602.91;;;0.28;69.77
74893;BME280;63446;56.272;43.922;2022-12-29T09:25:55;100598.50;;;0.29;69.89
74893;BME280;63446;56.272;43.922;2022-12-29T09:28:22;100603.50;;;0.30;69.85
74893;BME280;63446;56.272;43.922;2022-12-29T09:30:48;100606.50;;;0.34;69.99
74893;BME280;63446;56.272;43.922;2022-12-29T09:33:15;100602.94;;;0.35;69.88
74893;BME280;63446;56.272;43.922;2022-12-29T09:35:48;100614.72;;;0.37;69.92
74893;BME280;63446;56.272;43.922;2022-12-29T09:38:15;100604.56;;;0.42;69.97
74893;BME280;63446;56.272;43.922;2022-12-29T09:40:44;100603.56;;;0.43;69.91
74893;BME280;63446;56.272;43.922;2022-12-29T09:43:27;100607.53;;;0.46;69.91
74893;BME280;63446;56.272;43.922;2022-12-29T09:46:11;100610.97;;;0.46;69.88
74893;BME280;63446;56.272;43.922;2022-12-29T09:48:45;100614.38;;;0.47;69.85
74893;BME280;63446;56.272;43.922;2022-12-29T09:51:16;100615.75;;;0.49;69.77
74893;BME280;63446;56.272;43.922;2022-12-29T09:53:57;100615.56;;;0.51;69.91
74893;BME280;63446;56.272;43.922;2022-12-29T09:56:25;100611.97;;;0.52;69.95
74893;BME280;63446;56.272;43.922;2022-12-29T09:58:57;100618.97;;;0.52;69.84
74893;BME280;63446;56.272;43.922;2022-12-29T10:01:59;100610.78;;;0.55;69.79
74893;BME280;63446;56.272;43.922;2022-12-29T10:04:29;100618.19;;;0.58;69.68
74893;BME280;63446;56.272;43.922;2022-12-29T10:07:03;100616.41;;;0.58;69.71
74893;BME280;63446;56.272;43.922;2022-12-29T10:18:03;100617.00;;;0.60;69.63
74893;BME280;63446;56.272;43.922;2022-12-29T10:25:57;100625.59;;;0.61;69.69
74893;BME280;63446;56.272;43.922;2022-12-29T10:28:42;100625.00;;;0.59;69.78
74893;BME280;63446;56.272;43.922;2022-12-29T10:31:18;100630.19;;;0.59;69.71
74893;BME280;63446;56.272;43.922;2022-12-29T10:33:50;100623.78;;;0.55;69.79
74893;BME280;63446;56.272;43.922;2022-12-29T10:36:39;100632.19;;;0.57;69.84
74893;BME280;63446;56.272;43.922;2022-12-29T10:39:23;100635.78;;;0.56;69.73
74893;BME280;63446;56.272;43.922;2022-12-29T10:42:01;100635.00;;;0.55;69.66
74893;BME280;63446;56.272;43.922;2022-12-29T10:44:30;100634.78;;;0.57;69.99
74893;BME280;63446;56.272;43.922;2022-12-29T10:46:59;100631.00;;;0.59;69.89
74893;BME280;63446;56.272;43.922;2022-12-29T10:49:27;100636.19;;;0.59;69.91
74893;BME280;63446;56.272;43.922;2022-12-29T10:51:57;100636.78;;;0.61;70.00
74893;BME280;63446;56.272;43.922;2022-12-29T10:57:32;100642.00;;;0.61;70.02
74893;BME280;63446;56.272;43.922;2022-12-29T11:00:00;100643.00;;;0.60;70.13
74893;BME280;63446;56.272;43.922;2022-12-29T11:05:23;100638.81;;;0.59;70.06
74893;BME280;63446;56.272;43.922;2022-12-29T11:07:57;100644.22;;;0.58;70.04
74893;BME280;63446;56.272;43.922;2022-12-29T11:10:35;100642.78;;;0.55;70.23
74893;BME280;63446;56.272;43.922;2022-12-29T11:13:06;100648.16;;;0.54;70.10
74893;BME280;63446;56.272;43.922;2022-12-29T11:15:43;100655.19;;;0.53;70.21
74893;BME280;63446;56.272;43.922;2022-12-29T11:20:54;100647.59;;;0.52;70.36
74893;BME280;63446;56.272;43.922;2022-12-29T11:28:44;100660.97;;;0.48;70.44
74893;BME280;63446;56.272;43.922;2022-12-29T11:31:15;100655.97;;;0.47;70.58
74893;BME280;63446;56.272;43.922;2022-12-29T11:33:42;100651.75;;;0.46;70.60
74893;BME280;63446;56.272;43.922;2022-12-29T11:36:16;100652.75;;;0.45;70.67
74893;BME280;63446;56.272;43.922;2022-12-29T11:38:47;100660.75;;;0.43;70.74
74893;BME280;63446;56.272;43.922;2022-12-29T11:41:30;100654.94;;;0.41;70.60
74893;BME280;63446;56.272;43.922;2022-12-29T11:44:02;100658.53;;;0.40;70.67
74893;BME280;63446;56.272;43.922;2022-12-29T11:46:32;100660.53;;;0.38;70.69
74893;BME280;63446;56.272;43.922;2022-12-29T11:48:59;100654.72;;;0.36;70.66
74893;BME280;63446;56.272;43.922;2022-12-29T11:51:47;100662.31;;;0.38;70.70
74893;BME280;63446;56.272;43.922;2022-12-29T11:56:53;100665.91;;;0.37;70.75
74893;BME280;63446;56.272;43.922;2022-12-29T12:02:08;100672.31;;;0.34;70.79
74893;BME280;63446;56.272;43.922;2022-12-29T12:04:37;100675.09;;;0.33;70.82
74893;BME280;63446;56.272;43.922;2022-12-29T12:07:15;100670.13;;;0.31;70.83
74893;BME280;63446;56.272;43.922;2022-12-29T12:09:46;100682.09;;;0.32;70.78
74893;BME280;63446;56.272;43.922;2022-12-29T12:12:29;100681.69;;;0.29;70.81
74893;BME280;63446;56.272;43.922;2022-12-29T12:14:59;100683.66;;;0.27;70.87
74893;BME280;63446;56.272;43.922;2022-12-29T12:17:53;100691.88;;;0.23;70.86
74893;BME280;63446;56.272;43.922;2022-12-29T12:20:26;100695.28;;;0.24;70.88
74893;BME280;63446;56.272;43.922;2022-12-29T12:23:14;100700.84;;;0.21;70.69
74893;BME280;63446;56.272;43.922;2022-12-29T12:29:14;100704.81;;;0.17;70.85
74893;BME280;63446;56.272;43.922;2022-12-29T12:31:57;100711.03;;;0.16;70.69
74893;BME280;63446;56.272;43.922;2022-12-29T12:34:40;100702.97;;;0.11;70.77
74893;BME280;63446;56.272;43.922;2022-12-29T12:48:36;100720.75;;;0.07;71.22
74893;BME280;63446;56.272;43.922;2022-12-29T12:51:25;100718.94;;;0.08;71.15
74893;BME280;63446;56.272;43.922;2022-12-29T12:59:56;100718.56;;;0.04;71.22
74893;BME280;63446;56.272;43.922;2022-12-29T13:10:42;100739.34;;;0.04;71.29
74893;BME280;63446;56.272;43.922;2022-12-29T13:13:40;100737.72;;;0.03;71.26
74893;BME280;63446;56.272;43.922;2022-12-29T13:23:52;100732.34;;;0.05;71.32
74893;BME280;63446;56.272;43.922;2022-12-29T13:35:00;100750.28;;;-0.01;71.69
74893;BME280;63446;56.272;43.922;2022-12-29T13:37:31;100754.50;;;0.01;71.69
74893;BME280;63446;56.272;43.922;2022-12-29T13:40:02;100755.47;;;-0.01;71.60
74893;BME280;63446;56.272;43.922;2022-12-29T13:42:30;100749.69;;;-0.03;71.58
74893;BME280;63446;56.272;43.922;2022-12-29T13:45:19;100758.91;;;0.00;71.69
74893;BME280;63446;56.272;43.922;2022-12-29T13:47:54;100759.88;;;-0.01;71.69
74893;BME280;63446;56.272;43.922;2022-12-29T13:50:25;100754.50;;;0.01;71.81
74893;BME280;63446;56.272;43.922;2022-12-29T13:55:37;100757.91;;;0.01;71.63
74893;BME280;63446;56.272;43.922;2022-12-29T14:03:51;100752.72;;;0.01;71.73
74893;BME280;63446;56.272;43.922;2022-12-29T14:06:31;100751.09;;;0.00;71.74
74893;BME280;63446;56.272;43.922;2022-12-29T14:09:04;100750.28;;;-0.01;71.62
74893;BME280;63446;56.272;43.922;2022-12-29T14:11:34;100752.72;;;0.01;71.70
74893;BME280;63446;56.272;43.922;2022-12-29T14:14:22;100753.50;;;0.02;71.66
74893;BME280;63446;56.272;43.922;2022-12-29T14:16:49;100750.91;;;0.02;71.83
74893;BME280;63446;56.272;43.922;2022-12-29T14:19:19;100749.91;;;0.03;71.62
74893;BME280;63446;56.272;43.922;2022-12-29T14:21:58;100765.50;;;0.03;71.88
74893;BME280;63446;56.272;43.922;2022-12-29T14:24:39;100769.69;;;0.04;71.89
74893;BME280;63446;56.272;43.922;2022-12-29T14:35:00;100771.31;;;0.05;72.07
74893;BME280;63446;56.272;43.922;2022-12-29T14:37:38;100773.91;;;0.05;72.20
74893;BME280;63446;56.272;43.922;2022-12-29T14:40:24;100773.13;;;0.04;72.05
74893;BME280;63446;56.272;43.922;2022-12-29T14:42:54;100777.88;;;0.01;72.10
74893;BME280;63446;56.272;43.922;2022-12-29T14:47:50;100781.09;;;0.03;71.92
74893;BME280;63446;56.272;43.922;2022-12-29T14:50:39;100784.06;;;-0.01;72.06
74893;BME280;63446;56.272;43.922;2022-12-29T14:56:13;100783.47;;;-0.03;72.02
74893;BME280;63446;56.272;43.922;2022-12-29T15:01:22;100787.06;;;-0.04;71.98
74893;BME280;63446;56.272;43.922;2022-12-29T15:03:50;100785.44;;;-0.05;71.87
74893;BME280;63446;56.272;43.922;2022-12-29T15:06:18;100784.63;;;-0.05;71.94
74893;BME280;63446;56.272;43.922;2022-12-29T15:09:15;100790.81;;;-0.06;71.67
74893;BME280;63446;56.272;43.922;2022-12-29T15:11:53;100787.59;;;-0.08;71.80
74893;BME280;63446;56.272;43.922;2022-12-29T15:14:27;100791.03;;;-0.08;71.71
74893;BME280;63446;56.272;43.922;2022-12-29T15:16:54;100786.38;;;-0.12;71.76
74893;BME280;63446;56.272;43.922;2022-12-29T15:19:22;100783.59;;;-0.11;71.91
74893;BME280;63446;56.272;43.922;2022-12-29T15:21:48;100786.78;;;-0.09;71.85
74893;BME280;63446;56.272;43.922;2022-12-29T15:24:15;100784.03;;;-0.07;72.08
74893;BME280;63446;56.272;43.922;2022-12-29T15:26:45;100785.81;;;-0.08;71.79
74893;BME280;63446;56.272;43.922;2022-12-29T15:29:37;100784.19;;;-0.09;71.96
74893;BME280;63446;56.272;43.922;2022-12-29T15:34:45;100792.63;;;-0.07;72.02
74893;BME280;63446;56.272;43.922;2022-12-29T15:37:32;100784.81;;;-0.07;72.04
74893;BME280;63446;56.272;43.922;2022-12-29T15:39:59;100790.81;;;-0.06;72.14
74893;BME280;63446;56.272;43.922;2022-12-29T15:45:13;100796.22;;;-0.08;72.01